sensor_id;sensor_type;location;lat;lon;timestamp;pressure;altitude;pressure_sealevel;temperature;humidity
84492;BME280;74718;40.778;21.400;2024-02-21T00:02:07;94569.29;;;6.49;65.90
84492;BME280;74718;40.778;21.400;2024-02-21T00:04:32;94565.03;;;6.45;66.03
84492;BME280;74718;40.778;21.400;2024-02-21T00:06:59;94565.70;;;6.42;66.10
84492;BME280;74718;40.778;21.400;2024-02-21T00:09:24;94560.96;;;6.36;65.86
84492;BME280;74718;40.778;21.400;2024-02-21T00:11:50;94558.64;;;6.30;65.70
84492;BME280;74718;40.778;21.400;2024-02-21T00:14:15;94555.55;;;6.24;65.74
84492;BME280;74718;40.778;21.400;2024-02-21T00:16:41;94554.86;;;6.19;66.01
84492;BME280;74718;40.778;21.400;2024-02-21T00:19:07;94551.94;;;6.17;66.15
84492;BME280;74718;40.778;21.400;2024-02-21T00:21:32;94549.31;;;6.14;65.97
84492;BME280;74718;40.778;21.400;2024-02-21T00:23:58;94552.90;;;6.07;66.13
84492;BME280;74718;40.778;21.400;2024-02-21T00:26:23;94551.62;;;6.04;66.02
84492;BME280;74718;40.778;21.400;2024-02-21T00:28:49;94549.70;;;6.01;66.21
84492;BME280;74718;40.778;21.400;2024-02-21T00:31:14;94549.72;;;5.98;66.31
84492;BME280;74718;40.778;21.400;2024-02-21T00:33:40;94552.91;;;5.95;66.21
84492;BME280;74718;40.778;21.400;2024-02-21T00:36:05;94553.02;;;5.98;66.51
84492;BME280;74718;40.778;21.400;2024-02-21T00:38:31;94553.83;;;6.05;66.24
84492;BME280;74718;40.778;21.400;2024-02-21T00:40:56;94551.55;;;6.08;66.04
84492;BME280;74718;40.778;21.400;2024-02-21T00:43:22;94553.02;;;6.12;65.85
84492;BME280;74718;40.778;21.400;2024-02-21T00:45:49;94553.61;;;6.17;65.87
84492;BME280;74718;40.778;21.400;2024-02-21T00:48:15;94556.55;;;6.27;65.85
84492;BME280;74718;40.778;21.400;2024-02-21T00:50:40;94559.66;;;6.36;65.71
84492;BME280;74718;40.778;21.400;2024-02-21T00:53:06;94557.82;;;6.38;65.52
84492;BME280;74718;40.778;21.400;2024-02-21T00:55:35;94555.69;;;6.31;65.45
84492;BME280;74718;40.778;21.400;2024-02-21T00:58:00;94556.21;;;6.25;65.42
84492;BME280;74718;40.778;21.400;2024-02-21T01:00:26;94554.98;;;6.18;65.57
84492;BME280;74718;40.778;21.400;2024-02-21T01:02:51;94549.23;;;6.07;65.57
84492;BME280;74718;40.778;21.400;2024-02-21T01:05:17;94552.08;;;6.01;65.64
84492;BME280;74718;40.778;21.400;2024-02-21T01:07:43;94544.48;;;5.98;65.55
84492;BME280;74718;40.778;21.400;2024-02-21T01:10:09;94543.67;;;5.96;65.69
84492;BME280;74718;40.778;21.400;2024-02-21T01:12:34;94542.42;;;6.00;65.78
84492;BME280;74718;40.778;21.400;2024-02-21T01:15:00;94539.01;;;6.07;65.62
84492;BME280;74718;40.778;21.400;2024-02-21T01:17:25;94536.02;;;6.14;65.21
84492;BME280;74718;40.778;21.400;2024-02-21T01:19:51;94533.49;;;6.19;64.91
84492;BME280;74718;40.778;21.400;2024-02-21T01:22:16;94532.33;;;6.18;64.68
84492;BME280;74718;40.778;21.400;2024-02-21T01:24:43;94531.16;;;6.15;64.82
84492;BME280;74718;40.778;21.400;2024-02-21T01:27:08;94529.39;;;6.09;65.09
84492;BME280;74718;40.778;21.400;2024-02-21T01:29:34;94531.29;;;6.03;65.68
84492;BME280;74718;40.778;21.400;2024-02-21T01:32:00;94528.46;;;5.98;66.06
84492;BME280;74718;40.778;21.400;2024-02-21T01:34:25;94526.92;;;5.94;66.15
84492;BME280;74718;40.778;21.400;2024-02-21T01:36:51;94525.98;;;5.94;66.28
84492;BME280;74718;40.778;21.400;2024-02-21T01:39:17;94526.29;;;5.96;66.42
84492;BME280;74718;40.778;21.400;2024-02-21T01:41:42;94525.62;;;6.00;66.31
84492;BME280;74718;40.778;21.400;2024-02-21T01:44:08;94529.23;;;6.02;66.21
84492;BME280;74718;40.778;21.400;2024-02-21T01:46:34;94529.34;;;6.05;66.00
84492;BME280;74718;40.778;21.400;2024-02-21T01:49:00;94530.17;;;6.03;65.71
84492;BME280;74718;40.778;21.400;2024-02-21T01:51:26;94526.27;;;5.97;65.98
84492;BME280;74718;40.778;21.400;2024-02-21T01:53:53;94523.66;;;5.91;66.04
84492;BME280;74718;40.778;21.400;2024-02-21T01:56:19;94522.77;;;5.86;66.11
84492;BME280;74718;40.778;21.400;2024-02-21T01:58:45;94517.06;;;5.78;66.21
84492;BME280;74718;40.778;21.400;2024-02-21T02:01:11;94523.84;;;5.79;66.10
84492;BME280;74718;40.778;21.400;2024-02-21T02:03:39;94522.52;;;5.84;66.39
84492;BME280;74718;40.778;21.400;2024-02-21T02:06:05;94524.20;;;5.87;66.18
84492;BME280;74718;40.778;21.400;2024-02-21T02:08:34;94522.54;;;5.85;66.09
84492;BME280;74718;40.778;21.400;2024-02-21T02:11:01;94521.05;;;5.83;65.92
84492;BME280;74718;40.778;21.400;2024-02-21T02:13:26;94523.74;;;5.82;65.87
84492;BME280;74718;40.778;21.400;2024-02-21T02:15:52;94523.00;;;5.79;65.80
84492;BME280;74718;40.778;21.400;2024-02-21T02:18:19;94521.42;;;5.76;65.93
84492;BME280;74718;40.778;21.400;2024-02-21T02:20:45;94524.73;;;5.77;66.09
84492;BME280;74718;40.778;21.400;2024-02-21T02:25:38;94521.08;;;5.84;66.40
84492;BME280;74718;40.778;21.400;2024-02-21T02:28:06;94521.58;;;5.88;66.37
84492;BME280;74718;40.778;21.400;2024-02-21T02:30:33;94519.46;;;5.90;66.49
84492;BME280;74718;40.778;21.400;2024-02-21T02:33:00;94521.13;;;5.94;66.48
84492;BME280;74718;40.778;21.400;2024-02-21T02:35:25;94523.23;;;5.99;66.37
84492;BME280;74718;40.778;21.400;2024-02-21T02:37:51;94518.19;;;5.94;66.25
84492;BME280;74718;40.778;21.400;2024-02-21T02:40:18;94520.26;;;5.91;66.13
84492;BME280;74718;40.778;21.400;2024-02-21T02:42:43;94520.52;;;5.89;66.02
84492;BME280;74718;40.778;21.400;2024-02-21T02:45:09;94519.23;;;5.86;65.84
84492;BME280;74718;40.778;21.400;2024-02-21T02:47:35;94515.02;;;5.83;65.65
84492;BME280;74718;40.778;21.400;2024-02-21T02:50:01;94516.40;;;5.78;65.59
84492;BME280;74718;40.778;21.400;2024-02-21T02:52:26;94515.41;;;5.72;65.72
84492;BME280;74718;40.778;21.400;2024-02-21T02:54:52;94510.97;;;5.67;65.82
84492;BME280;74718;40.778;21.400;2024-02-21T02:57:20;94511.77;;;5.63;65.82
84492;BME280;74718;40.778;21.400;2024-02-21T02:59:50;94513.14;;;5.57;66.12
84492;BME280;74718;40.778;21.400;2024-02-21T03:02:16;94516.96;;;5.57;66.31
84492;BME280;74718;40.778;21.400;2024-02-21T03:04:42;94520.89;;;5.60;66.30
84492;BME280;74718;40.778;21.400;2024-02-21T03:07:08;94524.02;;;5.59;66.17
84492;BME280;74718;40.778;21.400;2024-02-21T03:09:33;94524.93;;;5.53;66.27
84492;BME280;74718;40.778;21.400;2024-02-21T03:11:59;94522.91;;;5.51;66.74
84492;BME280;74718;40.778;21.400;2024-02-21T03:14:28;94522.20;;;5.48;67.02
84492;BME280;74718;40.778;21.400;2024-02-21T03:16:54;94521.59;;;5.48;67.03
84492;BME280;74718;40.778;21.400;2024-02-21T03:19:20;94521.07;;;5.54;67.03
84492;BME280;74718;40.778;21.400;2024-02-21T03:21:45;94523.89;;;5.62;66.97
84492;BME280;74718;40.778;21.400;2024-02-21T03:24:11;94523.20;;;5.68;66.67
84492;BME280;74718;40.778;21.400;2024-02-21T03:26:36;94524.08;;;5.71;66.36
84492;BME280;74718;40.778;21.400;2024-02-21T03:29:03;94522.88;;;5.67;66.04
84492;BME280;74718;40.778;21.400;2024-02-21T03:31:29;94524.39;;;5.55;66.29
84492;BME280;74718;40.778;21.400;2024-02-21T03:33:54;94524.77;;;5.42;66.40
84492;BME280;74718;40.778;21.400;2024-02-21T03:36:20;94528.16;;;5.32;66.70
84492;BME280;74718;40.778;21.400;2024-02-21T03:38:45;94523.52;;;5.26;66.82
84492;BME280;74718;40.778;21.400;2024-02-21T03:41:11;94524.70;;;5.27;66.85
84492;BME280;74718;40.778;21.400;2024-02-21T03:43:39;94524.57;;;5.28;66.64
84492;BME280;74718;40.778;21.400;2024-02-21T03:46:05;94528.09;;;5.29;66.67
84492;BME280;74718;40.778;21.400;2024-02-21T03:48:32;94528.16;;;5.32;66.31
84492;BME280;74718;40.778;21.400;2024-02-21T03:50:58;94529.34;;;5.31;65.71
84492;BME280;74718;40.778;21.400;2024-02-21T03:53:24;94529.65;;;5.24;65.81
84492;BME280;74718;40.778;21.400;2024-02-21T03:55:50;94531.04;;;5.13;66.08
84492;BME280;74718;40.778;21.400;2024-02-21T03:58:15;94524.86;;;5.02;66.34
84492;BME280;74718;40.778;21.400;2024-02-21T04:00:43;94525.46;;;4.99;66.93
84492;BME280;74718;40.778;21.400;2024-02-21T04:03:09;94524.02;;;5.01;66.99
84492;BME280;74718;40.778;21.400;2024-02-21T04:05:34;94526.54;;;5.07;67.03
84492;BME280;74718;40.778;21.400;2024-02-21T04:08:00;94526.59;;;5.09;66.84
84492;BME280;74718;40.778;21.400;2024-02-21T04:10:28;94524.02;;;5.10;66.97
84492;BME280;74718;40.778;21.400;2024-02-21T04:12:54;94523.42;;;5.11;66.94
84492;BME280;74718;40.778;21.400;2024-02-21T04:15:19;94525.59;;;5.11;66.93
84492;BME280;74718;40.778;21.400;2024-02-21T04:17:45;94524.82;;;5.09;66.88
84492;BME280;74718;40.778;21.400;2024-02-21T04:20:15;94526.10;;;5.06;67.00
84492;BME280;74718;40.778;21.400;2024-02-21T04:22:42;94525.11;;;5.04;66.90
84492;BME280;74718;40.778;21.400;2024-02-21T04:25:08;94521.91;;;5.00;66.82
84492;BME280;74718;40.778;21.400;2024-02-21T04:27:34;94524.92;;;4.98;66.63
84492;BME280;74718;40.778;21.400;2024-02-21T04:29:59;94525.56;;;4.94;66.69
84492;BME280;74718;40.778;21.400;2024-02-21T04:32:25;94523.98;;;4.89;66.70
84492;BME280;74718;40.778;21.400;2024-02-21T04:34:52;94529.64;;;4.85;66.79
84492;BME280;74718;40.778;21.400;2024-02-21T04:37:18;94529.83;;;4.83;66.88
84492;BME280;74718;40.778;21.400;2024-02-21T04:39:44;94530.71;;;4.80;66.87
84492;BME280;74718;40.778;21.400;2024-02-21T04:42:12;94527.58;;;4.77;66.96
84492;BME280;74718;40.778;21.400;2024-02-21T04:44:37;94527.73;;;4.72;66.93
84492;BME280;74718;40.778;21.400;2024-02-21T04:47:03;94528.39;;;4.71;67.41
84492;BME280;74718;40.778;21.400;2024-02-21T04:49:30;94526.14;;;4.76;67.52
84492;BME280;74718;40.778;21.400;2024-02-21T04:51:55;94526.46;;;4.82;67.57
84492;BME280;74718;40.778;21.400;2024-02-21T04:54:21;94524.35;;;4.87;67.61
84492;BME280;74718;40.778;21.400;2024-02-21T04:56:46;94524.29;;;4.93;67.50
84492;BME280;74718;40.778;21.400;2024-02-21T04:59:12;94524.26;;;4.96;67.42
84492;BME280;74718;40.778;21.400;2024-02-21T05:01:37;94527.43;;;4.96;67.35
84492;BME280;74718;40.778;21.400;2024-02-21T05:04:04;94525.84;;;4.95;67.20
84492;BME280;74718;40.778;21.400;2024-02-21T05:06:29;94528.58;;;4.94;67.16
84492;BME280;74718;40.778;21.400;2024-02-21T05:08:55;94529.23;;;4.94;67.15
84492;BME280;74718;40.778;21.400;2024-02-21T05:11:24;94530.15;;;4.93;67.21
84492;BME280;74718;40.778;21.400;2024-02-21T05:13:50;94530.81;;;4.95;67.21
84492;BME280;74718;40.778;21.400;2024-02-21T05:16:15;94532.00;;;4.97;67.00
84492;BME280;74718;40.778;21.400;2024-02-21T05:18:41;94538.23;;;4.94;66.72
84492;BME280;74718;40.778;21.400;2024-02-21T05:21:08;94536.41;;;4.91;66.64
84492;BME280;74718;40.778;21.400;2024-02-21T05:23:33;94533.25;;;4.86;66.53
84492;BME280;74718;40.778;21.400;2024-02-21T05:25:59;94534.54;;;4.83;66.38
84492;BME280;74718;40.778;21.400;2024-02-21T05:28:24;94535.52;;;4.81;66.49
84492;BME280;74718;40.778;21.400;2024-02-21T05:30:50;94535.66;;;4.80;66.74
84492;BME280;74718;40.778;21.400;2024-02-21T05:33:15;94532.65;;;4.73;66.49
84492;BME280;74718;40.778;21.400;2024-02-21T05:35:47;94533.56;;;4.66;66.52
84492;BME280;74718;40.778;21.400;2024-02-21T05:38:13;94537.84;;;4.60;66.70
84492;BME280;74718;40.778;21.400;2024-02-21T05:40:39;94539.09;;;4.60;66.90
84492;BME280;74718;40.778;21.400;2024-02-21T05:43:09;94538.88;;;4.62;66.85
84492;BME280;74718;40.778;21.400;2024-02-21T05:45:35;94539.30;;;4.62;66.88
84492;BME280;74718;40.778;21.400;2024-02-21T05:48:00;94541.38;;;4.65;67.01
84492;BME280;74718;40.778;21.400;2024-02-21T05:50:29;94545.30;;;4.65;67.20
84492;BME280;74718;40.778;21.400;2024-02-21T05:52:55;94551.30;;;4.64;67.42
84492;BME280;74718;40.778;21.400;2024-02-21T05:55:21;94549.36;;;4.61;67.22
84492;BME280;74718;40.778;21.400;2024-02-21T05:57:47;94550.92;;;4.59;67.16
84492;BME280;74718;40.778;21.400;2024-02-21T06:00:13;94550.64;;;4.58;66.89
84492;BME280;74718;40.778;21.400;2024-02-21T06:02:39;94552.42;;;4.56;66.61
84492;BME280;74718;40.778;21.400;2024-02-21T06:05:06;94553.18;;;4.53;66.52
84492;BME280;74718;40.778;21.400;2024-02-21T06:07:36;94557.20;;;4.51;66.49
84492;BME280;74718;40.778;21.400;2024-02-21T06:10:02;94558.14;;;4.51;66.34
84492;BME280;74718;40.778;21.400;2024-02-21T06:12:28;94563.08;;;4.56;66.12
84492;BME280;74718;40.778;21.400;2024-02-21T06:14:54;94562.39;;;4.60;65.85
84492;BME280;74718;40.778;21.400;2024-02-21T06:17:19;94570.33;;;4.69;65.77
84492;BME280;74718;40.778;21.400;2024-02-21T06:19:45;94576.98;;;4.88;65.51
84492;BME280;74718;40.778;21.400;2024-02-21T06:22:11;94579.61;;;5.07;65.22
84492;BME280;74718;40.778;21.400;2024-02-21T06:24:37;94580.29;;;5.26;64.62
84492;BME280;74718;40.778;21.400;2024-02-21T06:27:06;94583.02;;;5.39;64.24
84492;BME280;74718;40.778;21.400;2024-02-21T06:29:32;94589.30;;;5.45;63.86
84492;BME280;74718;40.778;21.400;2024-02-21T06:31:58;94593.84;;;5.50;63.66
84492;BME280;74718;40.778;21.400;2024-02-21T06:34:24;94599.48;;;5.65;63.45
84492;BME280;74718;40.778;21.400;2024-02-21T06:36:50;94603.08;;;5.84;63.25
84492;BME280;74718;40.778;21.400;2024-02-21T06:39:16;94607.96;;;5.96;62.90
84492;BME280;74718;40.778;21.400;2024-02-21T06:41:41;94614.16;;;6.08;62.86
84492;BME280;74718;40.778;21.400;2024-02-21T06:44:07;94617.23;;;6.16;62.75
84492;BME280;74718;40.778;21.400;2024-02-21T06:46:33;94623.10;;;6.22;62.63
84492;BME280;74718;40.778;21.400;2024-02-21T06:48:59;94623.64;;;6.27;62.31
84492;BME280;74718;40.778;21.400;2024-02-21T06:51:26;94629.02;;;6.32;62.18
84492;BME280;74718;40.778;21.400;2024-02-21T06:53:52;94627.99;;;6.36;62.05
84492;BME280;74718;40.778;21.400;2024-02-21T06:56:18;94624.52;;;6.39;61.90
84492;BME280;74718;40.778;21.400;2024-02-21T06:58:44;94627.95;;;6.43;61.79
84492;BME280;74718;40.778;21.400;2024-02-21T07:01:10;94629.39;;;6.47;61.58
84492;BME280;74718;40.778;21.400;2024-02-21T07:03:36;94630.44;;;6.52;61.40
84492;BME280;74718;40.778;21.400;2024-02-21T07:06:02;94630.87;;;6.55;60.87
84492;BME280;74718;40.778;21.400;2024-02-21T07:08:28;94630.52;;;6.64;60.96
84492;BME280;74718;40.778;21.400;2024-02-21T07:10:54;94633.19;;;6.76;60.52
84492;BME280;74718;40.778;21.400;2024-02-21T07:13:20;94633.35;;;6.85;60.36
84492;BME280;74718;40.778;21.400;2024-02-21T07:15:48;94631.66;;;6.92;60.32
84492;BME280;74718;40.778;21.400;2024-02-21T07:18:13;94633.89;;;6.85;60.09
84492;BME280;74718;40.778;21.400;2024-02-21T07:20:39;94633.39;;;6.89;60.00
84492;BME280;74718;40.778;21.400;2024-02-21T07:23:09;94635.38;;;6.95;59.66
84492;BME280;74718;40.778;21.400;2024-02-21T07:25:35;94635.14;;;7.04;59.55
84492;BME280;74718;40.778;21.400;2024-02-21T07:28:01;94636.75;;;7.13;59.42
84492;BME280;74718;40.778;21.400;2024-02-21T07:30:26;94634.11;;;7.22;59.27
84492;BME280;74718;40.778;21.400;2024-02-21T07:32:52;94636.12;;;7.27;58.97
84492;BME280;74718;40.778;21.400;2024-02-21T07:35:18;94638.13;;;7.35;58.76
84492;BME280;74718;40.778;21.400;2024-02-21T07:37:43;94636.75;;;7.44;58.75
84492;BME280;74718;40.778;21.400;2024-02-21T07:40:13;94636.02;;;7.57;58.74
84492;BME280;74718;40.778;21.400;2024-02-21T07:42:39;94639.10;;;7.67;58.66
84492;BME280;74718;40.778;21.400;2024-02-21T07:45:07;94638.65;;;7.72;58.45
84492;BME280;74718;40.778;21.400;2024-02-21T07:47:33;94636.95;;;7.85;58.12
84492;BME280;74718;40.778;21.400;2024-02-21T07:49:58;94636.71;;;7.96;57.90
84492;BME280;74718;40.778;21.400;2024-02-21T07:52:24;94634.92;;;7.98;57.59
84492;BME280;74718;40.778;21.400;2024-02-21T07:54:50;94639.94;;;8.01;57.56
84492;BME280;74718;40.778;21.400;2024-02-21T07:57:16;94644.43;;;8.09;57.33
84492;BME280;74718;40.778;21.400;2024-02-21T07:59:41;94644.77;;;8.23;57.21
84492;BME280;74718;40.778;21.400;2024-02-21T08:02:07;94646.73;;;8.32;56.72
84492;BME280;74718;40.778;21.400;2024-02-21T08:04:33;94645.73;;;8.40;56.55
84492;BME280;74718;40.778;21.400;2024-02-21T08:06:58;94641.69;;;8.63;56.30
84492;BME280;74718;40.778;21.400;2024-02-21T08:09:26;94642.75;;;8.89;55.76
84492;BME280;74718;40.778;21.400;2024-02-21T08:11:54;94642.23;;;9.08;55.27
84492;BME280;74718;40.778;21.400;2024-02-21T08:14:19;94641.96;;;9.26;54.59
84492;BME280;74718;40.778;21.400;2024-02-21T08:16:45;94640.45;;;9.38;53.90
84492;BME280;74718;40.778;21.400;2024-02-21T08:19:11;94642.94;;;9.50;54.24
84492;BME280;74718;40.778;21.400;2024-02-21T08:21:36;94639.13;;;9.65;53.67
84492;BME280;74718;40.778;21.400;2024-02-21T08:24:02;94637.04;;;9.85;53.34
84492;BME280;74718;40.778;21.400;2024-02-21T08:26:28;94635.70;;;10.02;52.73
84492;BME280;74718;40.778;21.400;2024-02-21T08:28:56;94639.00;;;10.13;52.56
84492;BME280;74718;40.778;21.400;2024-02-21T08:31:25;94639.23;;;10.26;52.00
84492;BME280;74718;40.778;21.400;2024-02-21T08:34:01;94641.09;;;10.46;51.25
84492;BME280;74718;40.778;21.400;2024-02-21T08:36:35;94640.27;;;10.59;51.44
84492;BME280;74718;40.778;21.400;2024-02-21T08:39:02;94641.54;;;10.72;50.51
84492;BME280;74718;40.778;21.400;2024-02-21T08:41:30;94644.40;;;10.74;49.63
84492;BME280;74718;40.778;21.400;2024-02-21T08:43:56;94644.30;;;10.74;50.39
84492;BME280;74718;40.778;21.400;2024-02-21T08:46:25;94642.39;;;10.73;50.49
84492;BME280;74718;40.778;21.400;2024-02-21T08:48:52;94638.52;;;10.65;50.53
84492;BME280;74718;40.778;21.400;2024-02-21T08:51:19;94643.27;;;10.66;50.19
84492;BME280;74718;40.778;21.400;2024-02-21T08:53:45;94644.08;;;10.68;49.99
84492;BME280;74718;40.778;21.400;2024-02-21T08:56:11;94642.87;;;10.62;50.29
84492;BME280;74718;40.778;21.400;2024-02-21T08:58:37;94645.55;;;10.60;50.01
84492;BME280;74718;40.778;21.400;2024-02-21T09:01:03;94646.06;;;10.49;49.34
84492;BME280;74718;40.778;21.400;2024-02-21T09:03:33;94647.45;;;10.44;49.67
84492;BME280;74718;40.778;21.400;2024-02-21T09:05:59;94650.58;;;10.45;49.35
84492;BME280;74718;40.778;21.400;2024-02-21T09:08:26;94651.54;;;10.48;48.96
84492;BME280;74718;40.778;21.400;2024-02-21T09:10:52;94655.48;;;10.56;49.08
84492;BME280;74718;40.778;21.400;2024-02-21T09:13:18;94655.02;;;10.68;49.05
84492;BME280;74718;40.778;21.400;2024-02-21T09:15:43;94655.19;;;10.88;48.87
84492;BME280;74718;40.778;21.400;2024-02-21T09:18:09;94654.45;;;11.01;48.05
84492;BME280;74718;40.778;21.400;2024-02-21T09:20:34;94657.85;;;11.20;48.00
84492;BME280;74718;40.778;21.400;2024-02-21T09:23:00;94655.25;;;11.33;47.68
84492;BME280;74718;40.778;21.400;2024-02-21T09:25:26;94656.96;;;11.40;47.76
84492;BME280;74718;40.778;21.400;2024-02-21T09:27:54;94652.73;;;11.55;46.11
84492;BME280;74718;40.778;21.400;2024-02-21T09:30:20;94647.25;;;11.68;46.14
84492;BME280;74718;40.778;21.400;2024-02-21T09:32:46;94642.77;;;11.72;44.55
84492;BME280;74718;40.778;21.400;2024-02-21T09:35:12;94644.09;;;11.68;42.57
84492;BME280;74718;40.778;21.400;2024-02-21T09:37:38;94646.20;;;11.64;43.48
84492;BME280;74718;40.778;21.400;2024-02-21T09:40:05;94649.98;;;11.74;43.54
84492;BME280;74718;40.778;21.400;2024-02-21T09:42:37;94645.87;;;11.80;42.96
84492;BME280;74718;40.778;21.400;2024-02-21T09:45:20;94648.20;;;11.83;43.02
84492;BME280;74718;40.778;21.400;2024-02-21T09:50:21;94648.38;;;11.71;42.38
84492;BME280;74718;40.778;21.400;2024-02-21T09:52:48;94647.67;;;11.44;42.20
84492;BME280;74718;40.778;21.400;2024-02-21T09:55:16;94651.20;;;11.21;42.94
84492;BME280;74718;40.778;21.400;2024-02-21T09:57:44;94646.08;;;11.06;43.35
84492;BME280;74718;40.778;21.400;2024-02-21T10:00:13;94643.95;;;11.01;42.92
84492;BME280;74718;40.778;21.400;2024-02-21T10:02:47;94641.36;;;11.12;42.97
84492;BME280;74718;40.778;21.400;2024-02-21T10:05:14;94633.73;;;11.19;42.79
84492;BME280;74718;40.778;21.400;2024-02-21T10:07:40;94634.80;;;11.44;43.14
84492;BME280;74718;40.778;21.400;2024-02-21T10:10:06;94632.29;;;11.56;42.68
84492;BME280;74718;40.778;21.400;2024-02-21T10:12:32;94628.61;;;11.69;42.73
84492;BME280;74718;40.778;21.400;2024-02-21T10:15:05;94628.75;;;11.83;42.44
84492;BME280;74718;40.778;21.400;2024-02-21T10:17:32;94619.19;;;12.01;42.10
84492;BME280;74718;40.778;21.400;2024-02-21T10:20:11;94614.02;;;12.13;42.01
84492;BME280;74718;40.778;21.400;2024-02-21T10:22:37;94611.10;;;12.19;41.67
84492;BME280;74718;40.778;21.400;2024-02-21T10:25:08;94611.21;;;12.11;41.96
84492;BME280;74718;40.778;21.400;2024-02-21T10:27:34;94607.97;;;12.26;40.91
84492;BME280;74718;40.778;21.400;2024-02-21T10:29:59;94604.84;;;12.29;40.66
84492;BME280;74718;40.778;21.400;2024-02-21T10:32:25;94601.53;;;12.24;40.75
84492;BME280;74718;40.778;21.400;2024-02-21T10:35:01;94596.83;;;12.12;41.12
84492;BME280;74718;40.778;21.400;2024-02-21T10:37:28;94594.41;;;11.90;40.43
84492;BME280;74718;40.778;21.400;2024-02-21T10:39:53;94587.52;;;11.70;40.22
84492;BME280;74718;40.778;21.400;2024-02-21T10:42:21;94590.36;;;11.56;40.68
84492;BME280;74718;40.778;21.400;2024-02-21T10:44:50;94591.13;;;11.42;40.64
84492;BME280;74718;40.778;21.400;2024-02-21T10:47:22;94589.00;;;11.30;39.90
84492;BME280;74718;40.778;21.400;2024-02-21T10:49:56;94580.33;;;11.19;39.78
84492;BME280;74718;40.778;21.400;2024-02-21T10:55:41;94574.71;;;11.16;38.43
84492;BME280;74718;40.778;21.400;2024-02-21T10:58:11;94573.94;;;11.04;38.86
84492;BME280;74718;40.778;21.400;2024-02-21T11:00:37;94572.17;;;10.94;39.37
84492;BME280;74718;40.778;21.400;2024-02-21T11:03:03;94571.14;;;10.88;38.72
84492;BME280;74718;40.778;21.400;2024-02-21T11:05:30;94563.95;;;10.80;39.25
84492;BME280;74718;40.778;21.400;2024-02-21T11:07:57;94566.31;;;10.76;39.28
84492;BME280;74718;40.778;21.400;2024-02-21T11:10:24;94561.23;;;10.73;39.57
84492;BME280;74718;40.778;21.400;2024-02-21T11:13:09;94560.48;;;10.66;39.33
84492;BME280;74718;40.778;21.400;2024-02-21T11:15:35;94559.40;;;10.62;38.83
84492;BME280;74718;40.778;21.400;2024-02-21T11:18:00;94557.27;;;10.55;38.74
84492;BME280;74718;40.778;21.400;2024-02-21T11:20:36;94557.39;;;10.49;38.86
84492;BME280;74718;40.778;21.400;2024-02-21T11:23:02;94552.11;;;10.46;38.98
84492;BME280;74718;40.778;21.400;2024-02-21T11:25:29;94552.80;;;10.47;39.44
84492;BME280;74718;40.778;21.400;2024-02-21T11:28:03;94546.75;;;10.49;39.63
84492;BME280;74718;40.778;21.400;2024-02-21T11:30:32;94543.13;;;10.53;39.81
84492;BME280;74718;40.778;21.400;2024-02-21T11:33:05;94538.91;;;10.52;39.68
84492;BME280;74718;40.778;21.400;2024-02-21T11:35:32;94535.79;;;10.50;39.71
84492;BME280;74718;40.778;21.400;2024-02-21T11:38:13;94534.27;;;10.50;39.69
84492;BME280;74718;40.778;21.400;2024-02-21T11:40:46;94529.85;;;10.51;39.51
84492;BME280;74718;40.778;21.400;2024-02-21T11:43:12;94528.64;;;10.52;39.89
84492;BME280;74718;40.778;21.400;2024-02-21T11:45:37;94527.84;;;10.52;39.68
84492;BME280;74718;40.778;21.400;2024-02-21T11:48:07;94524.30;;;10.51;39.69
84492;BME280;74718;40.778;21.400;2024-02-21T11:50:34;94521.95;;;10.52;39.94
84492;BME280;74718;40.778;21.400;2024-02-21T11:53:02;94519.36;;;10.55;39.68
84492;BME280;74718;40.778;21.400;2024-02-21T11:55:28;94512.41;;;10.59;39.87
84492;BME280;74718;40.778;21.400;2024-02-21T11:57:54;94509.92;;;10.58;40.23
84492;BME280;74718;40.778;21.400;2024-02-21T12:00:20;94504.45;;;10.61;40.13
84492;BME280;74718;40.778;21.400;2024-02-21T12:02:46;94505.58;;;10.66;39.68
84492;BME280;74718;40.778;21.400;2024-02-21T12:05:14;94501.59;;;10.70;39.80
84492;BME280;74718;40.778;21.400;2024-02-21T12:07:40;94495.88;;;10.71;39.25
84492;BME280;74718;40.778;21.400;2024-02-21T12:10:10;94493.73;;;10.71;39.47
84492;BME280;74718;40.778;21.400;2024-02-21T12:12:37;94492.46;;;10.75;39.20
84492;BME280;74718;40.778;21.400;2024-02-21T12:15:04;94493.28;;;10.79;39.63
84492;BME280;74718;40.778;21.400;2024-02-21T12:17:32;94487.54;;;10.81;39.36
84492;BME280;74718;40.778;21.400;2024-02-21T12:19:59;94483.64;;;10.84;39.19
84492;BME280;74718;40.778;21.400;2024-02-21T12:22:25;94484.21;;;10.86;38.71
84492;BME280;74718;40.778;21.400;2024-02-21T12:24:52;94481.79;;;10.88;38.71
84492;BME280;74718;40.778;21.400;2024-02-21T12:27:17;94475.52;;;10.89;38.72
84492;BME280;74718;40.778;21.400;2024-02-21T12:29:43;94469.06;;;10.87;38.15
84492;BME280;74718;40.778;21.400;2024-02-21T12:32:08;94462.16;;;10.89;37.88
84492;BME280;74718;40.778;21.400;2024-02-21T12:34:34;94458.91;;;10.94;37.68
84492;BME280;74718;40.778;21.400;2024-02-21T12:37:01;94450.52;;;11.01;37.68
84492;BME280;74718;40.778;21.400;2024-02-21T12:39:28;94447.80;;;11.14;37.93
84492;BME280;74718;40.778;21.400;2024-02-21T12:41:54;94444.63;;;11.27;37.75
84492;BME280;74718;40.778;21.400;2024-02-21T12:44:21;94438.24;;;11.30;37.43
84492;BME280;74718;40.778;21.400;2024-02-21T12:46:47;94433.97;;;11.24;37.08
84492;BME280;74718;40.778;21.400;2024-02-21T12:49:18;94428.36;;;11.20;37.45
84492;BME280;74718;40.778;21.400;2024-02-21T12:51:44;94427.85;;;11.17;37.36
84492;BME280;74718;40.778;21.400;2024-02-21T12:54:12;94424.38;;;11.17;37.47
84492;BME280;74718;40.778;21.400;2024-02-21T12:56:38;94426.57;;;11.18;37.50
84492;BME280;74718;40.778;21.400;2024-02-21T12:59:06;94429.42;;;11.18;37.50
84492;BME280;74718;40.778;21.400;2024-02-21T13:01:35;94425.04;;;11.20;37.54
84492;BME280;74718;40.778;21.400;2024-02-21T13:04:01;94420.77;;;11.25;37.35